createdAt,value
2023-11-15T00:00:12.828Z,74.60
2023-11-15T00:02:42.503Z,74.80
2023-11-15T00:05:12.551Z,75.00
2023-11-15T00:07:43.784Z,74.70
2023-11-15T00:10:15.101Z,74.60
2023-11-15T00:12:44.595Z,74.80
2023-11-15T00:15:15.395Z,75.50
2023-11-15T00:17:44.102Z,75.20
2023-11-15T00:20:15.766Z,75.20
2023-11-15T00:22:44.245Z,75.90
2023-11-15T00:25:12.710Z,75.60
2023-11-15T00:27:41.978Z,75.60
2023-11-15T00:30:11.965Z,76.00
2023-11-15T00:32:41.498Z,75.90
2023-11-15T00:35:13.577Z,75.70
2023-11-15T00:37:43.455Z,75.90
2023-11-15T00:40:14.877Z,76.10
2023-11-15T00:42:43.711Z,76.10
2023-11-15T00:45:13.348Z,76.20
2023-11-15T00:47:42.707Z,76.20
2023-11-15T00:50:11.754Z,75.90
2023-11-15T00:52:40.186Z,75.90
2023-11-15T00:55:10.931Z,75.90
2023-11-15T00:57:40.221Z,76.10
2023-11-15T01:00:25.393Z,76.00
2023-11-15T01:02:57.505Z,75.80
2023-11-15T01:05:30.272Z,75.80
2023-11-15T01:07:59.739Z,76.00
2023-11-15T01:10:30.549Z,76.10
2023-11-15T01:12:59.413Z,75.90
2023-11-15T01:15:29.479Z,76.20
2023-11-15T01:18:09.438Z,76.20
2023-11-15T01:20:39.737Z,76.00
2023-11-15T01:23:08.988Z,76.10
2023-11-15T01:25:39.068Z,76.20
2023-11-15T01:28:08.242Z,76.10
2023-11-15T01:30:36.454Z,76.10
2023-11-15T01:33:06.746Z,75.70
2023-11-15T01:35:35.246Z,75.90
2023-11-15T01:38:04.150Z,75.90
2023-11-15T01:40:35.599Z,75.50
2023-11-15T01:43:06.307Z,75.60
2023-11-15T01:45:34.578Z,75.50
2023-11-15T01:48:02.978Z,75.60
2023-11-15T01:50:31.554Z,75.50
2023-11-15T01:53:01.754Z,75.80
2023-11-15T01:55:31.259Z,75.10
2023-11-15T01:58:00.875Z,74.80
2023-11-15T02:00:30.441Z,74.50
2023-11-15T02:02:59.064Z,74.30
2023-11-15T02:05:27.942Z,73.30
2023-11-15T02:07:56.649Z,72.90
2023-11-15T02:10:25.871Z,72.40
2023-11-15T02:12:54.343Z,72.20
2023-11-15T02:15:23.506Z,72.30
2023-11-15T02:17:55.659Z,71.80
2023-11-15T02:20:25.252Z,71.80
2023-11-15T02:22:54.677Z,71.70
2023-11-15T02:25:25.603Z,71.80
2023-11-15T02:27:54.572Z,71.90
2023-11-15T02:30:23.822Z,71.90
2023-11-15T02:32:52.550Z,72.30
2023-11-15T02:35:20.996Z,72.90
2023-11-15T02:37:51.069Z,72.90
2023-11-15T02:40:20.516Z,73.50
2023-11-15T02:42:50.963Z,73.60
2023-11-15T02:45:19.812Z,73.60
2023-11-15T02:47:48.348Z,74.00
2023-11-15T02:50:16.783Z,73.80
2023-11-15T02:52:44.968Z,73.80
2023-11-15T02:55:13.540Z,73.50
2023-11-15T02:57:42.311Z,73.50
2023-11-15T03:00:13.702Z,73.80
2023-11-15T03:02:44.814Z,73.40
2023-11-15T03:05:14.568Z,73.20
2023-11-15T03:07:42.917Z,73.40
2023-11-15T03:10:12.458Z,73.20
2023-11-15T03:12:40.793Z,73.20
2023-11-15T03:15:11.947Z,73.20
2023-11-15T03:17:41.748Z,73.20
2023-11-15T03:20:11.584Z,72.90
2023-11-15T03:22:41.484Z,72.90
2023-11-15T03:25:10.035Z,72.80
2023-11-15T03:27:38.490Z,72.40
2023-11-15T03:30:08.042Z,72.30
2023-11-15T03:32:39.120Z,71.90
2023-11-15T03:35:08.253Z,71.70
2023-11-15T03:37:37.247Z,71.30
2023-11-15T03:40:10.341Z,71.10
2023-11-15T03:42:39.208Z,71.00
2023-11-15T03:45:11.043Z,70.70
2023-11-15T03:47:42.251Z,70.80
2023-11-15T03:50:12.771Z,70.50
2023-11-15T03:52:43.056Z,70.70
2023-11-15T03:55:11.475Z,70.60
2023-11-15T03:57:39.681Z,70.30
2023-11-15T04:00:11.776Z,70.20
2023-11-15T04:02:44.829Z,70.10
2023-11-15T04:05:14.310Z,69.80
2023-11-15T04:07:43.743Z,69.60
2023-11-15T04:10:13.748Z,69.20
2023-11-15T04:12:45.352Z,68.70
2023-11-15T04:15:17.366Z,68.30
2023-11-15T04:17:48.142Z,68.00
2023-11-15T04:20:16.696Z,67.80
2023-11-15T04:22:45.940Z,67.80
2023-11-15T04:25:14.720Z,67.80
2023-11-15T04:27:42.856Z,67.60
2023-11-15T04:30:13.089Z,67.60
2023-11-15T04:32:41.904Z,68.00
2023-11-15T04:35:15.702Z,68.30
2023-11-15T04:37:44.281Z,68.60
2023-11-15T04:40:12.877Z,68.70
2023-11-15T04:42:43.474Z,68.70
2023-11-15T04:45:12.957Z,68.80
2023-11-15T04:47:41.836Z,69.00
2023-11-15T04:50:12.479Z,69.00
2023-11-15T04:52:40.771Z,69.00
2023-11-15T04:55:11.294Z,69.20
2023-11-15T04:57:40.551Z,69.10
2023-11-15T05:00:12.121Z,69.00
2023-11-15T05:02:40.735Z,69.10
2023-11-15T05:05:11.815Z,69.20
2023-11-15T05:07:42.159Z,69.30
2023-11-15T05:10:11.226Z,69.10
2023-11-15T05:12:41.884Z,69.30
2023-11-15T05:15:10.513Z,69.20
2023-11-15T05:17:40.256Z,69.20
2023-11-15T05:20:10.877Z,68.90
2023-11-15T05:22:38.993Z,68.20
2023-11-15T05:25:09.685Z,67.80
2023-11-15T05:27:38.351Z,67.50
2023-11-15T05:30:08.416Z,67.20
2023-11-15T05:32:37.279Z,67.00
2023-11-15T05:35:07.123Z,67.00
2023-11-15T05:37:35.668Z,67.00
2023-11-15T05:40:04.120Z,67.00
2023-11-15T05:42:33.703Z,66.90
2023-11-15T05:45:02.553Z,67.20
2023-11-15T05:47:32.610Z,67.20
2023-11-15T05:50:01.373Z,67.30
2023-11-15T05:52:30.542Z,67.40
2023-11-15T05:54:59.002Z,67.50
2023-11-15T05:57:27.169Z,67.70
2023-11-15T05:59:58.005Z,67.90
2023-11-15T06:02:26.891Z,68.20
2023-11-15T06:04:57.996Z,68.20
2023-11-15T06:07:27.384Z,68.30
2023-11-15T06:09:57.415Z,68.30
2023-11-15T06:12:26.174Z,68.40
2023-11-15T06:14:55.242Z,68.40
2023-11-15T06:17:29.848Z,68.30
2023-11-15T06:20:04.520Z,68.70
2023-11-15T06:22:35.308Z,68.40
2023-11-15T06:25:04.968Z,68.50
2023-11-15T06:27:34.554Z,68.60
2023-11-15T06:30:04.824Z,68.80
2023-11-15T06:32:35.547Z,68.60
2023-11-15T06:35:04.283Z,68.80
2023-11-15T06:37:35.268Z,69.00
2023-11-15T06:40:10.109Z,69.20
2023-11-15T06:42:38.647Z,69.30
2023-11-15T06:45:07.960Z,69.40
2023-11-15T06:47:38.292Z,69.40
2023-11-15T06:50:08.298Z,69.50
2023-11-15T06:52:38.924Z,69.80
2023-11-15T06:55:12.250Z,69.90
2023-11-15T06:57:42.501Z,70.10
2023-11-15T07:00:14.350Z,70.20
2023-11-15T07:02:46.715Z,69.90
2023-11-15T07:05:17.639Z,69.80
2023-11-15T07:07:46.060Z,69.60
2023-11-15T07:10:16.734Z,69.40
2023-11-15T07:12:47.886Z,69.30
2023-11-15T07:15:19.307Z,69.20
2023-11-15T07:17:49.150Z,69.20
2023-11-15T07:20:21.985Z,69.20
2023-11-15T07:22:50.418Z,69.70
2023-11-15T07:25:19.456Z,71.50
2023-11-15T07:27:48.102Z,72.90
2023-11-15T07:30:17.853Z,73.60
2023-11-15T07:32:46.383Z,74.20
2023-11-15T07:35:17.608Z,75.60
2023-11-15T07:37:46.100Z,75.50
2023-11-15T07:40:14.893Z,75.70
2023-11-15T07:42:43.825Z,75.40
2023-11-15T07:45:13.423Z,74.60
2023-11-15T07:47:45.957Z,73.90
2023-11-15T07:50:16.844Z,75.30
2023-11-15T07:52:47.623Z,74.90
2023-11-15T07:55:16.490Z,74.60
2023-11-15T07:57:44.805Z,74.00
2023-11-15T08:00:14.679Z,73.60
2023-11-15T08:02:43.969Z,73.30
2023-11-15T08:05:12.656Z,73.30
2023-11-15T08:07:40.990Z,73.70
2023-11-15T08:10:14.799Z,74.50
2023-11-15T08:12:45.063Z,75.30
2023-11-15T08:15:16.423Z,75.30
2023-11-15T08:17:44.962Z,75.60
2023-11-15T08:20:13.832Z,75.60
2023-11-15T08:22:44.314Z,74.90
2023-11-15T08:25:14.601Z,74.90
2023-11-15T08:27:44.714Z,74.40
2023-11-15T08:30:18.654Z,74.20
2023-11-15T08:32:50.521Z,74.10
2023-11-15T08:35:18.956Z,73.90
2023-11-15T08:37:47.604Z,73.50
2023-11-15T08:40:26.590Z,73.20
2023-11-15T08:42:58.652Z,73.50
2023-11-15T08:45:27.719Z,73.00
2023-11-15T08:47:59.374Z,72.80
2023-11-15T08:50:28.540Z,73.00
2023-11-15T08:52:57.908Z,74.40
2023-11-15T08:55:28.143Z,76.70
2023-11-15T08:57:58.315Z,77.40
2023-11-15T09:00:27.875Z,76.60
2023-11-15T09:02:57.666Z,76.60
2023-11-15T09:05:26.814Z,76.80
2023-11-15T09:07:56.308Z,76.70
2023-11-15T09:10:24.781Z,76.40
2023-11-15T09:12:56.002Z,76.50
2023-11-15T09:15:25.808Z,75.20
2023-11-15T09:17:54.441Z,75.30
2023-11-15T09:20:27.536Z,75.80
2023-11-15T09:22:56.281Z,76.00
2023-11-15T09:25:26.966Z,75.90
2023-11-15T09:27:59.186Z,75.80
2023-11-15T09:30:30.040Z,76.00
2023-11-15T09:33:01.021Z,75.70
2023-11-15T09:35:30.748Z,75.20
2023-11-15T09:38:00.980Z,75.10
2023-11-15T09:40:30.066Z,73.80
2023-11-15T09:43:02.192Z,74.10
2023-11-15T09:45:34.595Z,75.10
2023-11-15T09:48:10.588Z,76.10
2023-11-15T09:50:42.900Z,76.80
2023-11-15T09:53:13.085Z,77.10
2023-11-15T09:55:43.208Z,77.00
2023-11-15T09:58:14.568Z,77.20
2023-11-15T10:00:43.140Z,77.00
2023-11-15T10:03:12.086Z,77.20
2023-11-15T10:05:44.220Z,77.30
2023-11-15T10:08:16.870Z,76.90
2023-11-15T10:10:48.544Z,76.90
2023-11-15T10:13:22.332Z,77.00
2023-11-15T10:15:52.474Z,76.90
2023-11-15T10:18:33.781Z,77.00
2023-11-15T10:21:10.244Z,77.00
2023-11-15T10:23:40.204Z,77.10
2023-11-15T10:26:10.808Z,77.10
2023-11-15T10:28:41.771Z,77.10
2023-11-15T10:31:15.706Z,73.60
2023-11-15T10:33:47.389Z,71.50
2023-11-15T10:36:20.339Z,72.60
2023-11-15T10:38:52.339Z,68.10
2023-11-15T10:41:22.510Z,66.80
2023-11-15T10:43:53.333Z,66.40
2023-11-15T10:46:28.391Z,66.40
2023-11-15T10:48:58.520Z,66.30
2023-11-15T10:51:30.992Z,66.30
2023-11-15T10:54:00.993Z,66.30
2023-11-15T10:56:33.206Z,66.70
2023-11-15T10:59:05.527Z,66.20
2023-11-15T11:01:35.482Z,66.80
2023-11-15T11:04:07.518Z,66.90
2023-11-15T11:06:43.282Z,66.90
2023-11-15T11:09:17.862Z,66.90
2023-11-15T11:11:53.739Z,66.40
2023-11-15T11:14:31.534Z,66.80
2023-11-15T11:17:01.166Z,66.60
2023-11-15T11:19:30.129Z,66.70
2023-11-15T11:22:13.551Z,66.80
2023-11-15T11:24:47.476Z,67.10
2023-11-15T11:27:32.871Z,66.50
2023-11-15T11:30:21.400Z,66.60
2023-11-15T11:32:51.887Z,67.40
2023-11-15T11:35:32.314Z,67.50
2023-11-15T11:38:02.312Z,66.90
2023-11-15T11:40:33.850Z,68.00
2023-11-15T11:43:23.611Z,73.10
2023-11-15T11:45:55.075Z,75.60
2023-11-15T11:48:25.522Z,74.10
2023-11-15T11:51:06.556Z,75.60
2023-11-15T11:53:39.414Z,75.40
2023-11-15T11:56:12.553Z,75.80
2023-11-15T11:58:41.821Z,75.60
2023-11-15T12:01:14.321Z,75.20
2023-11-15T12:03:49.633Z,74.50
2023-11-15T12:06:19.880Z,74.30
2023-11-15T12:08:53.386Z,74.90
2023-11-15T12:11:24.143Z,74.80
2023-11-15T12:13:54.824Z,73.00
2023-11-15T12:16:26.209Z,69.90
2023-11-15T12:19:03.962Z,69.60
2023-11-15T12:21:33.967Z,69.20
2023-11-15T12:24:06.069Z,68.50
2023-11-15T12:26:46.822Z,67.80
2023-11-15T12:29:21.611Z,68.40
2023-11-15T12:31:53.939Z,69.60
2023-11-15T12:34:23.627Z,70.60
2023-11-15T12:36:52.788Z,70.40
2023-11-15T12:39:23.886Z,70.80
2023-11-15T12:41:54.617Z,72.30
2023-11-15T12:44:23.703Z,72.00
2023-11-15T12:46:55.242Z,71.30
2023-11-15T12:49:26.908Z,71.40
2023-11-15T12:51:55.674Z,70.10
2023-11-15T12:54:24.349Z,70.20
2023-11-15T12:57:09.240Z,69.70
2023-11-15T12:59:40.241Z,70.50
2023-11-15T13:02:13.862Z,69.70
2023-11-15T13:04:51.919Z,70.90
2023-11-15T13:07:20.579Z,69.80
2023-11-15T13:09:49.743Z,73.30
2023-11-15T13:12:25.801Z,74.50
2023-11-15T13:14:55.354Z,73.10
2023-11-15T13:17:28.196Z,75.70
2023-11-15T13:20:00.612Z,76.00
2023-11-15T13:22:31.327Z,75.20
2023-11-15T13:24:59.960Z,74.90
2023-11-15T13:27:28.175Z,77.50
2023-11-15T13:29:56.831Z,76.40
2023-11-15T13:32:27.320Z,76.30
2023-11-15T13:34:56.199Z,76.20
2023-11-15T13:37:26.024Z,76.40
2023-11-15T13:39:56.011Z,75.80
2023-11-15T13:42:25.203Z,75.40
2023-11-15T13:44:54.083Z,75.20
2023-11-15T13:47:22.658Z,75.60
2023-11-15T13:49:52.227Z,75.20
2023-11-15T13:52:20.638Z,74.00
2023-11-15T13:54:48.893Z,71.50
2023-11-15T13:57:19.215Z,68.70
2023-11-15T13:59:48.176Z,67.20
2023-11-15T14:02:16.808Z,66.70
2023-11-15T14:04:49.524Z,66.80
2023-11-15T14:07:20.640Z,66.70
2023-11-15T14:09:48.778Z,66.80
2023-11-15T14:12:17.410Z,66.70
2023-11-15T14:14:45.929Z,66.70
2023-11-15T14:17:14.205Z,66.80
2023-11-15T14:19:42.354Z,66.80
2023-11-15T14:22:12.981Z,66.80
2023-11-15T14:24:42.566Z,66.80
2023-11-15T14:27:16.508Z,66.60
2023-11-15T14:29:44.831Z,66.70
2023-11-15T14:32:17.147Z,66.60
2023-11-15T14:34:46.061Z,66.50
2023-11-15T14:37:14.575Z,66.90
2023-11-15T14:39:44.404Z,67.10
2023-11-15T14:42:13.406Z,67.00
2023-11-15T14:44:42.382Z,66.50
2023-11-15T14:47:14.058Z,66.40
2023-11-15T14:49:45.453Z,66.40
2023-11-15T14:52:14.545Z,66.50
2023-11-15T14:54:47.091Z,66.50
2023-11-15T14:57:16.080Z,66.10
2023-11-15T14:59:46.353Z,65.80
2023-11-15T15:02:18.781Z,65.90
2023-11-15T15:04:49.956Z,66.30
2023-11-15T15:07:20.134Z,66.80
2023-11-15T15:09:51.188Z,65.90
2023-11-15T15:12:21.985Z,66.00
2023-11-15T15:14:50.866Z,66.40
2023-11-15T15:17:23.974Z,66.10
2023-11-15T15:19:55.240Z,66.30
2023-11-15T15:22:27.735Z,66.50
2023-11-15T15:24:58.123Z,66.30
2023-11-15T15:27:28.272Z,66.80
2023-11-15T15:29:59.476Z,66.40
2023-11-15T15:32:42.399Z,66.40
2023-11-15T15:35:13.439Z,66.50
2023-11-15T15:37:42.081Z,66.50
2023-11-15T15:40:15.674Z,66.60
2023-11-15T15:42:45.025Z,66.50
2023-11-15T15:45:15.072Z,66.50
2023-11-15T15:47:45.519Z,66.50
2023-11-15T15:50:15.383Z,66.60
2023-11-15T15:52:44.687Z,66.70
2023-11-15T15:55:14.919Z,66.70
2023-11-15T15:57:43.138Z,66.70
2023-11-15T16:00:13.559Z,66.70
2023-11-15T16:02:43.130Z,66.70
2023-11-15T16:05:12.422Z,66.70
2023-11-15T16:07:44.642Z,66.70
2023-11-15T16:10:14.741Z,66.80
2023-11-15T16:12:43.150Z,66.80
2023-11-15T16:15:18.288Z,66.70
2023-11-15T16:17:49.070Z,66.70
2023-11-15T16:20:18.674Z,66.80
2023-11-15T16:22:47.775Z,66.80
2023-11-15T16:25:17.697Z,66.90
2023-11-15T16:27:46.628Z,66.80
2023-11-15T16:30:15.631Z,66.70
2023-11-15T16:32:44.788Z,66.80
2023-11-15T16:35:13.793Z,66.70
2023-11-15T16:37:43.224Z,66.80
2023-11-15T16:40:12.674Z,66.70
2023-11-15T16:42:43.819Z,66.80
2023-11-15T16:45:14.546Z,66.80
2023-11-15T16:47:43.001Z,66.80
2023-11-15T16:50:11.830Z,66.80
2023-11-15T16:52:40.425Z,66.90
2023-11-15T16:55:13.565Z,66.90
2023-11-15T16:57:43.346Z,66.80
2023-11-15T17:00:14.801Z,66.90
2023-11-15T17:02:45.838Z,66.90
2023-11-15T17:05:14.482Z,66.90
2023-11-15T17:07:43.221Z,66.90
2023-11-15T17:10:12.420Z,66.80
2023-11-15T17:12:41.050Z,66.90
2023-11-15T17:15:12.883Z,66.90
2023-11-15T17:17:42.533Z,66.90
2023-11-15T17:20:12.603Z,66.90
2023-11-15T17:22:40.898Z,66.90
2023-11-15T17:25:19.434Z,66.90
2023-11-15T17:27:49.020Z,66.90
2023-11-15T17:30:19.945Z,66.90
2023-11-15T17:32:48.313Z,66.90
2023-11-15T17:35:17.049Z,66.90
2023-11-15T17:37:46.106Z,67.00
2023-11-15T17:40:16.672Z,66.90
2023-11-15T17:42:45.935Z,66.90
2023-11-15T17:45:14.662Z,66.90
2023-11-15T17:47:46.183Z,66.80
2023-11-15T17:50:21.543Z,66.90
2023-11-15T17:52:51.496Z,67.00
2023-11-15T17:55:20.033Z,66.90
2023-11-15T17:57:48.679Z,67.00
2023-11-15T18:00:18.927Z,67.10
2023-11-15T18:02:51.713Z,67.20
2023-11-15T18:05:20.544Z,67.40
2023-11-15T18:07:49.371Z,67.50
2023-11-15T18:10:18.151Z,67.60
2023-11-15T18:12:47.277Z,67.50
2023-11-15T18:15:17.449Z,67.20
2023-11-15T18:17:47.106Z,67.30
2023-11-15T18:20:16.956Z,67.30
2023-11-15T18:22:49.809Z,67.20
2023-11-15T18:25:20.197Z,67.20
2023-11-15T18:27:50.277Z,67.10
2023-11-15T18:30:19.651Z,67.00
2023-11-15T18:32:48.966Z,67.00
2023-11-15T18:35:20.407Z,66.90
2023-11-15T18:37:49.064Z,66.90
2023-11-15T18:40:18.640Z,66.90
2023-11-15T18:42:47.466Z,66.90
2023-11-15T18:45:15.809Z,66.80
2023-11-15T18:47:45.732Z,66.90
2023-11-15T18:50:17.292Z,66.90
2023-11-15T18:52:47.401Z,66.90
2023-11-15T18:55:19.237Z,66.90
2023-11-15T18:57:48.546Z,66.90
2023-11-15T19:00:23.126Z,66.90
2023-11-15T19:02:51.946Z,66.90
2023-11-15T19:05:21.359Z,67.00
2023-11-15T19:07:51.423Z,66.90
2023-11-15T19:10:21.004Z,66.90
2023-11-15T19:12:51.033Z,67.00
2023-11-15T19:15:19.366Z,66.90
2023-11-15T19:17:52.081Z,66.90
2023-11-15T19:20:22.316Z,66.90
2023-11-15T19:22:54.801Z,66.90
2023-11-15T19:25:23.824Z,66.90
2023-11-15T19:27:52.343Z,66.90
2023-11-15T19:30:24.561Z,66.90
2023-11-15T19:32:57.608Z,66.90
2023-11-15T19:35:28.827Z,66.90
2023-11-15T19:38:00.020Z,66.90
2023-11-15T19:40:29.127Z,66.90
2023-11-15T19:42:58.049Z,66.90
2023-11-15T19:45:29.039Z,67.00
2023-11-15T19:48:00.504Z,66.90
2023-11-15T19:50:29.357Z,67.00
2023-11-15T19:53:01.205Z,66.90
2023-11-15T19:55:34.355Z,66.80
2023-11-15T19:58:03.061Z,66.80
2023-11-15T20:00:32.309Z,66.80
2023-11-15T20:03:01.895Z,66.90
2023-11-15T20:05:30.613Z,66.80
2023-11-15T20:08:01.808Z,66.80
2023-11-15T20:10:31.794Z,66.80
2023-11-15T20:13:00.226Z,66.80
2023-11-15T20:15:29.420Z,66.90
2023-11-15T20:17:58.287Z,67.10
2023-11-15T20:20:26.750Z,67.10
2023-11-15T20:22:57.271Z,67.10
2023-11-15T20:25:28.986Z,67.20
2023-11-15T20:27:58.015Z,67.30
2023-11-15T20:30:27.163Z,67.30
2023-11-15T20:32:56.928Z,67.30
2023-11-15T20:35:26.096Z,67.30
2023-11-15T20:37:54.509Z,67.40
2023-11-15T20:40:23.518Z,67.40
2023-11-15T20:42:54.454Z,67.40
2023-11-15T20:45:23.804Z,67.40
2023-11-15T20:47:53.205Z,67.40
2023-11-15T20:50:22.814Z,67.50
2023-11-15T20:52:51.589Z,67.40
2023-11-15T20:55:25.139Z,67.50
2023-11-15T20:58:01.055Z,67.50
2023-11-15T21:00:31.094Z,67.40
2023-11-15T21:02:59.921Z,67.40
2023-11-15T21:05:29.877Z,67.40
2023-11-15T21:07:59.494Z,67.40
2023-11-15T21:10:28.044Z,67.30
2023-11-15T21:12:59.110Z,67.20
2023-11-15T21:15:28.088Z,67.20
2023-11-15T21:17:56.783Z,67.10
2023-11-15T21:20:25.495Z,67.10
2023-11-15T21:22:54.200Z,67.10
2023-11-15T21:25:22.872Z,67.10
2023-11-15T21:27:51.435Z,67.00
2023-11-15T21:30:22.945Z,67.00
2023-11-15T21:32:52.819Z,67.00
2023-11-15T21:35:21.444Z,67.00
2023-11-15T21:37:51.381Z,67.00
2023-11-15T21:40:21.520Z,67.00
2023-11-15T21:42:53.413Z,67.00
2023-11-15T21:45:26.435Z,67.00
2023-11-15T21:47:56.132Z,67.00
2023-11-15T21:50:25.194Z,67.00
2023-11-15T21:52:55.029Z,67.00
2023-11-15T21:55:23.940Z,67.00
2023-11-15T21:57:53.669Z,67.10
2023-11-15T22:00:27.068Z,67.10
2023-11-15T22:02:57.288Z,67.10
2023-11-15T22:05:26.097Z,67.10
2023-11-15T22:07:58.829Z,67.10
2023-11-15T22:10:28.430Z,67.20
2023-11-15T22:12:56.956Z,67.20
2023-11-15T22:15:25.746Z,67.20
2023-11-15T22:17:54.414Z,67.10
2023-11-15T22:20:24.714Z,67.10
2023-11-15T22:22:53.683Z,67.20
2023-11-15T22:25:23.021Z,67.20
2023-11-15T22:27:52.677Z,67.20
2023-11-15T22:30:22.448Z,67.20
2023-11-15T22:32:51.221Z,67.20
2023-11-15T22:35:24.243Z,67.20
2023-11-15T22:37:56.013Z,67.20
2023-11-15T22:40:27.524Z,67.20
2023-11-15T22:43:04.938Z,67.20
2023-11-15T22:45:34.383Z,67.20
2023-11-15T22:48:03.283Z,67.20
2023-11-15T22:50:31.877Z,67.40
2023-11-15T22:53:02.332Z,67.30
2023-11-15T22:55:30.737Z,67.30
2023-11-15T22:58:00.104Z,67.20
2023-11-15T23:00:34.905Z,67.20
2023-11-15T23:03:10.865Z,67.30
2023-11-15T23:05:45.263Z,67.20
2023-11-15T23:08:21.573Z,67.30
2023-11-15T23:10:49.798Z,67.30
2023-11-15T23:13:19.345Z,67.40
2023-11-15T23:15:52.314Z,67.40
2023-11-15T23:18:22.576Z,67.40
2023-11-15T23:20:51.253Z,67.40
2023-11-15T23:23:21.272Z,67.40
2023-11-15T23:25:52.745Z,67.40
2023-11-15T23:28:23.147Z,67.50
2023-11-15T23:30:55.476Z,67.50
2023-11-15T23:33:24.435Z,67.50
2023-11-15T23:35:53.325Z,67.40
2023-11-15T23:38:23.582Z,67.40
2023-11-15T23:40:55.041Z,67.50
2023-11-15T23:43:23.318Z,67.40
2023-11-15T23:45:52.254Z,67.40
2023-11-15T23:48:21.256Z,67.40
2023-11-15T23:50:49.583Z,67.40
2023-11-15T23:53:20.191Z,67.40
2023-11-15T23:55:51.459Z,67.50
2023-11-15T23:58:20.224Z,67.50
